sensor_id;sensor_type;location;lat;lon;timestamp;temperature;humidity
7163;DHT22;3623;47.098;15.446;2022-10-26T00:00:27;10.30;99.90
7163;DHT22;3623;47.098;15.446;2022-10-26T00:02:55;10.30;99.90
7163;DHT22;3623;47.098;15.446;2022-10-26T00:05:23;10.30;99.90
7163;DHT22;3623;47.098;15.446;2022-10-26T00:07:50;10.30;99.90
7163;DHT22;3623;47.098;15.446;2022-10-26T00:10:17;10.20;99.90
7163;DHT22;3623;47.098;15.446;2022-10-26T00:12:48;10.20;99.90
7163;DHT22;3623;47.098;15.446;2022-10-26T00:15:16;10.10;99.90
7163;DHT22;3623;47.098;15.446;2022-10-26T00:17:45;10.10;99.90
7163;DHT22;3623;47.098;15.446;2022-10-26T00:20:12;10.00;99.90
7163;DHT22;3623;47.098;15.446;2022-10-26T00:22:39;10.00;99.90
7163;DHT22;3623;47.098;15.446;2022-10-26T00:25:07;10.00;99.90
7163;DHT22;3623;47.098;15.446;2022-10-26T00:27:35;9.40;99.90
7163;DHT22;3623;47.098;15.446;2022-10-26T00:30:02;10.00;99.90
7163;DHT22;3623;47.098;15.446;2022-10-26T00:32:30;10.00;99.90
7163;DHT22;3623;47.098;15.446;2022-10-26T00:34:59;10.00;99.90
7163;DHT22;3623;47.098;15.446;2022-10-26T00:37:26;10.00;99.90
7163;DHT22;3623;47.098;15.446;2022-10-26T00:39:53;10.00;99.90
7163;DHT22;3623;47.098;15.446;2022-10-26T00:42:21;10.00;99.90
7163;DHT22;3623;47.098;15.446;2022-10-26T00:44:57;10.00;99.90
7163;DHT22;3623;47.098;15.446;2022-10-26T00:47:33;10.00;99.90
7163;DHT22;3623;47.098;15.446;2022-10-26T00:50:07;10.00;99.90
7163;DHT22;3623;47.098;15.446;2022-10-26T00:52:36;9.90;99.90
7163;DHT22;3623;47.098;15.446;2022-10-26T00:55:05;9.90;99.90
7163;DHT22;3623;47.098;15.446;2022-10-26T00:57:34;9.90;99.90
7163;DHT22;3623;47.098;15.446;2022-10-26T01:00:03;9.80;99.90
7163;DHT22;3623;47.098;15.446;2022-10-26T01:02:30;9.80;99.90
7163;DHT22;3623;47.098;15.446;2022-10-26T01:04:58;9.80;99.90
7163;DHT22;3623;47.098;15.446;2022-10-26T01:07:28;9.80;99.90
7163;DHT22;3623;47.098;15.446;2022-10-26T01:09:56;9.70;99.90
7163;DHT22;3623;47.098;15.446;2022-10-26T01:12:23;9.70;99.90
7163;DHT22;3623;47.098;15.446;2022-10-26T01:14:50;9.70;99.90
7163;DHT22;3623;47.098;15.446;2022-10-26T01:17:39;9.70;99.90
7163;DHT22;3623;47.098;15.446;2022-10-26T01:20:29;9.60;99.90
7163;DHT22;3623;47.098;15.446;2022-10-26T01:23:06;9.60;99.90
7163;DHT22;3623;47.098;15.446;2022-10-26T01:25:55;9.60;99.90
7163;DHT22;3623;47.098;15.446;2022-10-26T01:28:34;9.60;99.90
7163;DHT22;3623;47.098;15.446;2022-10-26T01:31:10;9.60;99.90
7163;DHT22;3623;47.098;15.446;2022-10-26T01:33:43;9.60;99.90
7163;DHT22;3623;47.098;15.446;2022-10-26T01:36:15;9.70;99.90
7163;DHT22;3623;47.098;15.446;2022-10-26T01:38:51;9.70;99.90
7163;DHT22;3623;47.098;15.446;2022-10-26T01:41:24;9.70;99.90
7163;DHT22;3623;47.098;15.446;2022-10-26T01:43:55;9.70;99.90
7163;DHT22;3623;47.098;15.446;2022-10-26T01:46:27;9.60;99.90
7163;DHT22;3623;47.098;15.446;2022-10-26T01:48:58;9.50;99.90
7163;DHT22;3623;47.098;15.446;2022-10-26T01:51:28;9.50;99.90
7163;DHT22;3623;47.098;15.446;2022-10-26T01:53:57;9.50;99.90
7163;DHT22;3623;47.098;15.446;2022-10-26T01:56:25;9.50;99.90
7163;DHT22;3623;47.098;15.446;2022-10-26T01:59:11;9.50;99.90
7163;DHT22;3623;47.098;15.446;2022-10-26T02:04:48;9.40;99.90
7163;DHT22;3623;47.098;15.446;2022-10-26T02:07:26;9.40;99.90
7163;DHT22;3623;47.098;15.446;2022-10-26T02:10:01;9.40;99.90
7163;DHT22;3623;47.098;15.446;2022-10-26T02:12:37;9.40;99.90
7163;DHT22;3623;47.098;15.446;2022-10-26T02:15:13;9.40;99.90
7163;DHT22;3623;47.098;15.446;2022-10-26T02:17:47;9.40;99.90
7163;DHT22;3623;47.098;15.446;2022-10-26T02:20:20;9.40;99.90
7163;DHT22;3623;47.098;15.446;2022-10-26T02:22:50;9.40;99.90
7163;DHT22;3623;47.098;15.446;2022-10-26T02:25:21;9.40;99.90
7163;DHT22;3623;47.098;15.446;2022-10-26T02:27:52;9.30;99.90
7163;DHT22;3623;47.098;15.446;2022-10-26T02:30:21;9.30;99.90
7163;DHT22;3623;47.098;15.446;2022-10-26T02:32:51;9.40;99.90
7163;DHT22;3623;47.098;15.446;2022-10-26T02:35:23;9.40;99.90
7163;DHT22;3623;47.098;15.446;2022-10-26T02:37:52;9.40;99.90
7163;DHT22;3623;47.098;15.446;2022-10-26T02:40:24;9.30;99.90
7163;DHT22;3623;47.098;15.446;2022-10-26T02:42:53;9.30;99.90
7163;DHT22;3623;47.098;15.446;2022-10-26T02:45:24;9.20;99.90
7163;DHT22;3623;47.098;15.446;2022-10-26T02:47:53;9.20;99.90
7163;DHT22;3623;47.098;15.446;2022-10-26T02:50:26;9.20;99.90
7163;DHT22;3623;47.098;15.446;2022-10-26T02:53:00;9.20;99.90
7163;DHT22;3623;47.098;15.446;2022-10-26T02:55:33;9.10;99.90
7163;DHT22;3623;47.098;15.446;2022-10-26T02:58:03;9.10;99.90
7163;DHT22;3623;47.098;15.446;2022-10-26T03:00:32;9.10;99.90
7163;DHT22;3623;47.098;15.446;2022-10-26T03:03:00;9.10;99.90
7163;DHT22;3623;47.098;15.446;2022-10-26T03:05:31;9.10;99.90
7163;DHT22;3623;47.098;15.446;2022-10-26T03:07:58;9.10;99.90
7163;DHT22;3623;47.098;15.446;2022-10-26T03:10:26;9.10;99.90
7163;DHT22;3623;47.098;15.446;2022-10-26T03:12:53;9.10;99.90
7163;DHT22;3623;47.098;15.446;2022-10-26T03:15:20;9.10;99.90
7163;DHT22;3623;47.098;15.446;2022-10-26T03:17:48;9.00;99.90
7163;DHT22;3623;47.098;15.446;2022-10-26T03:20:15;9.00;99.90
7163;DHT22;3623;47.098;15.446;2022-10-26T03:22:46;9.00;99.90
7163;DHT22;3623;47.098;15.446;2022-10-26T03:25:13;9.00;99.90
7163;DHT22;3623;47.098;15.446;2022-10-26T03:27:41;9.00;99.90
7163;DHT22;3623;47.098;15.446;2022-10-26T03:30:08;9.00;99.90
7163;DHT22;3623;47.098;15.446;2022-10-26T03:32:36;9.00;99.90
7163;DHT22;3623;47.098;15.446;2022-10-26T03:35:04;9.00;99.90
7163;DHT22;3623;47.098;15.446;2022-10-26T03:37:31;9.00;99.90
7163;DHT22;3623;47.098;15.446;2022-10-26T03:39:59;9.00;99.90
7163;DHT22;3623;47.098;15.446;2022-10-26T03:42:27;9.10;99.90
7163;DHT22;3623;47.098;15.446;2022-10-26T03:44:54;9.00;99.90
7163;DHT22;3623;47.098;15.446;2022-10-26T03:47:21;9.00;99.90
7163;DHT22;3623;47.098;15.446;2022-10-26T03:49:48;9.00;99.90
7163;DHT22;3623;47.098;15.446;2022-10-26T03:52:15;9.00;99.90
7163;DHT22;3623;47.098;15.446;2022-10-26T03:54:42;9.00;99.90
7163;DHT22;3623;47.098;15.446;2022-10-26T03:57:10;9.10;99.90
7163;DHT22;3623;47.098;15.446;2022-10-26T03:59:38;9.10;99.90
7163;DHT22;3623;47.098;15.446;2022-10-26T04:02:06;9.10;99.90
7163;DHT22;3623;47.098;15.446;2022-10-26T04:04:33;9.10;99.90
7163;DHT22;3623;47.098;15.446;2022-10-26T04:07:00;9.10;99.90
7163;DHT22;3623;47.098;15.446;2022-10-26T04:09:27;9.10;99.90
7163;DHT22;3623;47.098;15.446;2022-10-26T04:11:54;9.10;99.90
7163;DHT22;3623;47.098;15.446;2022-10-26T04:14:23;9.10;99.90
7163;DHT22;3623;47.098;15.446;2022-10-26T04:16:50;9.00;99.90
7163;DHT22;3623;47.098;15.446;2022-10-26T04:19:17;9.00;99.90
7163;DHT22;3623;47.098;15.446;2022-10-26T04:21:44;9.00;99.90
7163;DHT22;3623;47.098;15.446;2022-10-26T04:24:11;8.90;99.90
7163;DHT22;3623;47.098;15.446;2022-10-26T04:26:38;8.90;99.90
7163;DHT22;3623;47.098;15.446;2022-10-26T04:29:05;8.90;99.90
7163;DHT22;3623;47.098;15.446;2022-10-26T04:31:35;8.90;99.90
7163;DHT22;3623;47.098;15.446;2022-10-26T04:34:02;8.90;99.90
7163;DHT22;3623;47.098;15.446;2022-10-26T04:36:29;8.90;99.90
7163;DHT22;3623;47.098;15.446;2022-10-26T04:38:57;8.90;99.90
7163;DHT22;3623;47.098;15.446;2022-10-26T04:41:24;8.90;99.90
7163;DHT22;3623;47.098;15.446;2022-10-26T04:43:51;8.80;99.90
7163;DHT22;3623;47.098;15.446;2022-10-26T04:46:18;8.80;99.90
7163;DHT22;3623;47.098;15.446;2022-10-26T04:48:48;8.80;99.90
7163;DHT22;3623;47.098;15.446;2022-10-26T04:51:15;8.80;99.90
7163;DHT22;3623;47.098;15.446;2022-10-26T04:53:42;8.90;99.90
7163;DHT22;3623;47.098;15.446;2022-10-26T04:56:09;8.90;99.90
7163;DHT22;3623;47.098;15.446;2022-10-26T04:58:36;8.90;99.90
7163;DHT22;3623;47.098;15.446;2022-10-26T05:01:04;8.90;99.90
7163;DHT22;3623;47.098;15.446;2022-10-26T05:03:31;8.90;99.90
7163;DHT22;3623;47.098;15.446;2022-10-26T05:06:00;9.00;99.90
7163;DHT22;3623;47.098;15.446;2022-10-26T05:08:27;9.00;99.90
7163;DHT22;3623;47.098;15.446;2022-10-26T05:10:55;9.00;99.90
7163;DHT22;3623;47.098;15.446;2022-10-26T05:13:22;9.10;99.90
7163;DHT22;3623;47.098;15.446;2022-10-26T05:15:52;9.10;99.90
7163;DHT22;3623;47.098;15.446;2022-10-26T05:18:20;9.10;99.90
7163;DHT22;3623;47.098;15.446;2022-10-26T05:20:47;9.10;99.90
7163;DHT22;3623;47.098;15.446;2022-10-26T05:23:19;9.10;99.90
7163;DHT22;3623;47.098;15.446;2022-10-26T05:25:47;9.20;99.90
7163;DHT22;3623;47.098;15.446;2022-10-26T05:28:15;9.20;99.90
7163;DHT22;3623;47.098;15.446;2022-10-26T05:30:44;9.30;99.90
7163;DHT22;3623;47.098;15.446;2022-10-26T05:33:13;9.30;99.90
7163;DHT22;3623;47.098;15.446;2022-10-26T05:35:40;9.40;99.90
7163;DHT22;3623;47.098;15.446;2022-10-26T05:38:08;9.40;99.90
7163;DHT22;3623;47.098;15.446;2022-10-26T05:40:36;9.30;99.90
7163;DHT22;3623;47.098;15.446;2022-10-26T05:43:04;9.40;99.90
7163;DHT22;3623;47.098;15.446;2022-10-26T05:45:31;9.40;99.90
7163;DHT22;3623;47.098;15.446;2022-10-26T05:47:58;9.50;99.90
7163;DHT22;3623;47.098;15.446;2022-10-26T05:50:26;9.50;99.90
7163;DHT22;3623;47.098;15.446;2022-10-26T05:52:53;9.50;99.90
7163;DHT22;3623;47.098;15.446;2022-10-26T05:55:21;9.50;99.90
7163;DHT22;3623;47.098;15.446;2022-10-26T05:57:50;9.60;99.90
7163;DHT22;3623;47.098;15.446;2022-10-26T06:00:21;9.60;99.90
7163;DHT22;3623;47.098;15.446;2022-10-26T06:03:01;9.60;99.90
7163;DHT22;3623;47.098;15.446;2022-10-26T06:05:34;9.70;99.90
7163;DHT22;3623;47.098;15.446;2022-10-26T06:08:07;9.70;99.90
7163;DHT22;3623;47.098;15.446;2022-10-26T06:10:36;9.80;99.90
7163;DHT22;3623;47.098;15.446;2022-10-26T06:13:06;9.80;99.90
7163;DHT22;3623;47.098;15.446;2022-10-26T06:15:46;9.90;99.90
7163;DHT22;3623;47.098;15.446;2022-10-26T06:18:19;10.00;99.90
7163;DHT22;3623;47.098;15.446;2022-10-26T06:20:57;10.00;99.90
7163;DHT22;3623;47.098;15.446;2022-10-26T06:23:39;10.00;99.90
7163;DHT22;3623;47.098;15.446;2022-10-26T06:26:17;10.10;99.90
7163;DHT22;3623;47.098;15.446;2022-10-26T06:28:58;10.10;99.90
7163;DHT22;3623;47.098;15.446;2022-10-26T06:31:29;10.10;99.90
7163;DHT22;3623;47.098;15.446;2022-10-26T06:33:59;10.20;99.90
7163;DHT22;3623;47.098;15.446;2022-10-26T06:36:27;10.20;99.90
7163;DHT22;3623;47.098;15.446;2022-10-26T06:38:58;10.30;99.90
7163;DHT22;3623;47.098;15.446;2022-10-26T06:41:27;10.40;99.90
7163;DHT22;3623;47.098;15.446;2022-10-26T06:43:58;10.40;99.90
7163;DHT22;3623;47.098;15.446;2022-10-26T06:46:36;10.50;99.90
7163;DHT22;3623;47.098;15.446;2022-10-26T06:49:11;10.60;99.90
7163;DHT22;3623;47.098;15.446;2022-10-26T06:51:45;10.60;99.90
7163;DHT22;3623;47.098;15.446;2022-10-26T06:54:19;10.70;99.90
7163;DHT22;3623;47.098;15.446;2022-10-26T06:56:47;10.70;99.90
7163;DHT22;3623;47.098;15.446;2022-10-26T06:59:25;10.60;99.90
7163;DHT22;3623;47.098;15.446;2022-10-26T07:01:55;10.60;99.90
7163;DHT22;3623;47.098;15.446;2022-10-26T07:04:22;10.70;99.90
7163;DHT22;3623;47.098;15.446;2022-10-26T07:06:49;10.70;99.90
7163;DHT22;3623;47.098;15.446;2022-10-26T07:09:17;10.70;99.90
7163;DHT22;3623;47.098;15.446;2022-10-26T07:11:44;10.80;99.90
7163;DHT22;3623;47.098;15.446;2022-10-26T07:14:11;10.90;99.90
7163;DHT22;3623;47.098;15.446;2022-10-26T07:16:40;10.90;99.90
7163;DHT22;3623;47.098;15.446;2022-10-26T07:19:07;10.90;99.90
7163;DHT22;3623;47.098;15.446;2022-10-26T07:21:34;11.00;99.90
7163;DHT22;3623;47.098;15.446;2022-10-26T07:24:01;11.10;99.90
7163;DHT22;3623;47.098;15.446;2022-10-26T07:26:28;11.10;99.90
7163;DHT22;3623;47.098;15.446;2022-10-26T07:28:55;11.20;99.90
7163;DHT22;3623;47.098;15.446;2022-10-26T07:31:23;11.20;99.90
7163;DHT22;3623;47.098;15.446;2022-10-26T07:33:53;11.20;99.90
7163;DHT22;3623;47.098;15.446;2022-10-26T07:36:21;11.30;99.90
7163;DHT22;3623;47.098;15.446;2022-10-26T07:38:50;11.40;99.90
7163;DHT22;3623;47.098;15.446;2022-10-26T07:41:17;11.40;99.90
7163;DHT22;3623;47.098;15.446;2022-10-26T07:43:44;11.50;99.90
7163;DHT22;3623;47.098;15.446;2022-10-26T07:46:13;11.60;99.90
7163;DHT22;3623;47.098;15.446;2022-10-26T07:48:41;11.70;99.90
7163;DHT22;3623;47.098;15.446;2022-10-26T07:51:09;11.80;99.90
7163;DHT22;3623;47.098;15.446;2022-10-26T07:53:36;11.80;99.90
7163;DHT22;3623;47.098;15.446;2022-10-26T07:56:04;11.80;99.90
7163;DHT22;3623;47.098;15.446;2022-10-26T07:58:31;11.80;99.90
7163;DHT22;3623;47.098;15.446;2022-10-26T08:01:04;11.80;99.90
7163;DHT22;3623;47.098;15.446;2022-10-26T08:03:32;11.90;99.90
7163;DHT22;3623;47.098;15.446;2022-10-26T08:05:59;11.90;99.90
7163;DHT22;3623;47.098;15.446;2022-10-26T08:08:27;12.00;99.90
7163;DHT22;3623;47.098;15.446;2022-10-26T08:10:54;12.10;99.90
7163;DHT22;3623;47.098;15.446;2022-10-26T08:13:21;12.20;99.90
7163;DHT22;3623;47.098;15.446;2022-10-26T08:15:48;12.20;99.90
7163;DHT22;3623;47.098;15.446;2022-10-26T08:18:16;12.20;99.90
7163;DHT22;3623;47.098;15.446;2022-10-26T08:20:43;12.30;99.90
7163;DHT22;3623;47.098;15.446;2022-10-26T08:23:10;12.40;99.90
7163;DHT22;3623;47.098;15.446;2022-10-26T08:25:41;12.40;99.90
7163;DHT22;3623;47.098;15.446;2022-10-26T08:28:08;12.50;99.90
7163;DHT22;3623;47.098;15.446;2022-10-26T08:30:36;12.60;99.90
7163;DHT22;3623;47.098;15.446;2022-10-26T08:33:04;12.60;99.90
7163;DHT22;3623;47.098;15.446;2022-10-26T08:35:32;12.60;99.90
7163;DHT22;3623;47.098;15.446;2022-10-26T08:38:00;12.60;99.90
7163;DHT22;3623;47.098;15.446;2022-10-26T08:40:30;12.60;99.90
7163;DHT22;3623;47.098;15.446;2022-10-26T08:43:02;12.60;99.90
7163;DHT22;3623;47.098;15.446;2022-10-26T08:45:32;12.60;99.90
7163;DHT22;3623;47.098;15.446;2022-10-26T08:48:06;12.60;99.90
7163;DHT22;3623;47.098;15.446;2022-10-26T08:50:40;12.70;99.90
7163;DHT22;3623;47.098;15.446;2022-10-26T08:53:13;12.90;99.90
7163;DHT22;3623;47.098;15.446;2022-10-26T08:55:46;13.10;99.90
7163;DHT22;3623;47.098;15.446;2022-10-26T08:58:16;13.40;99.90
7163;DHT22;3623;47.098;15.446;2022-10-26T09:00:46;13.60;99.90
7163;DHT22;3623;47.098;15.446;2022-10-26T09:03:15;13.50;99.90
7163;DHT22;3623;47.098;15.446;2022-10-26T09:05:51;13.60;99.90
7163;DHT22;3623;47.098;15.446;2022-10-26T09:08:30;13.60;99.90
7163;DHT22;3623;47.098;15.446;2022-10-26T09:11:07;13.70;99.90
7163;DHT22;3623;47.098;15.446;2022-10-26T09:13:46;13.70;99.90
7163;DHT22;3623;47.098;15.446;2022-10-26T09:16:22;13.70;99.90
7163;DHT22;3623;47.098;15.446;2022-10-26T09:18:57;13.90;99.90
7163;DHT22;3623;47.098;15.446;2022-10-26T09:21:42;14.00;99.90
7163;DHT22;3623;47.098;15.446;2022-10-26T09:24:14;14.10;99.90
7163;DHT22;3623;47.098;15.446;2022-10-26T09:26:52;14.30;99.90
7163;DHT22;3623;47.098;15.446;2022-10-26T09:29:26;14.30;99.90
7163;DHT22;3623;47.098;15.446;2022-10-26T09:31:56;14.40;99.90
7163;DHT22;3623;47.098;15.446;2022-10-26T09:34:29;14.40;99.90
7163;DHT22;3623;47.098;15.446;2022-10-26T09:36:57;14.70;99.90
7163;DHT22;3623;47.098;15.446;2022-10-26T09:39:32;14.80;99.90
7163;DHT22;3623;47.098;15.446;2022-10-26T09:42:10;15.00;99.90
7163;DHT22;3623;47.098;15.446;2022-10-26T09:44:42;14.90;99.90
7163;DHT22;3623;47.098;15.446;2022-10-26T09:47:15;14.90;99.90
7163;DHT22;3623;47.098;15.446;2022-10-26T09:49:47;15.00;99.90
7163;DHT22;3623;47.098;15.446;2022-10-26T09:52:15;15.00;99.90
7163;DHT22;3623;47.098;15.446;2022-10-26T09:54:42;14.90;99.90
7163;DHT22;3623;47.098;15.446;2022-10-26T09:57:14;15.00;99.90
7163;DHT22;3623;47.098;15.446;2022-10-26T09:59:44;15.10;99.90
7163;DHT22;3623;47.098;15.446;2022-10-26T10:02:35;15.20;99.90
7163;DHT22;3623;47.098;15.446;2022-10-26T10:05:20;15.40;99.90
7163;DHT22;3623;47.098;15.446;2022-10-26T10:07:48;15.30;99.90
7163;DHT22;3623;47.098;15.446;2022-10-26T10:10:17;15.40;99.90
7163;DHT22;3623;47.098;15.446;2022-10-26T10:12:45;15.40;99.90
7163;DHT22;3623;47.098;15.446;2022-10-26T10:15:19;15.60;99.90
7163;DHT22;3623;47.098;15.446;2022-10-26T10:17:48;15.40;99.90
7163;DHT22;3623;47.098;15.446;2022-10-26T10:20:19;15.30;99.90
7163;DHT22;3623;47.098;15.446;2022-10-26T10:22:54;15.40;99.90
7163;DHT22;3623;47.098;15.446;2022-10-26T10:25:30;15.50;99.90
7163;DHT22;3623;47.098;15.446;2022-10-26T10:27:57;15.70;99.90
7163;DHT22;3623;47.098;15.446;2022-10-26T10:30:29;16.40;99.90
7163;DHT22;3623;47.098;15.446;2022-10-26T10:33:04;17.30;99.90
7163;DHT22;3623;47.098;15.446;2022-10-26T10:35:32;18.40;99.90
7163;DHT22;3623;47.098;15.446;2022-10-26T10:37:59;19.50;99.90
7163;DHT22;3623;47.098;15.446;2022-10-26T10:40:27;20.30;99.90
7163;DHT22;3623;47.098;15.446;2022-10-26T10:43:05;20.40;99.90
7163;DHT22;3623;47.098;15.446;2022-10-26T10:45:34;21.20;99.90
7163;DHT22;3623;47.098;15.446;2022-10-26T10:48:04;21.30;99.90
7163;DHT22;3623;47.098;15.446;2022-10-26T10:50:32;21.90;99.90
7163;DHT22;3623;47.098;15.446;2022-10-26T10:53:15;22.00;99.90
7163;DHT22;3623;47.098;15.446;2022-10-26T10:55:51;22.10;99.90
7163;DHT22;3623;47.098;15.446;2022-10-26T10:58:26;21.70;99.90
7163;DHT22;3623;47.098;15.446;2022-10-26T11:00:56;21.10;99.90
7163;DHT22;3623;47.098;15.446;2022-10-26T11:03:36;21.40;99.90
7163;DHT22;3623;47.098;15.446;2022-10-26T11:06:15;21.90;99.90
7163;DHT22;3623;47.098;15.446;2022-10-26T11:08:47;22.80;99.90
7163;DHT22;3623;47.098;15.446;2022-10-26T11:11:18;23.00;99.90
7163;DHT22;3623;47.098;15.446;2022-10-26T11:13:51;22.70;99.90
7163;DHT22;3623;47.098;15.446;2022-10-26T11:16:24;22.20;99.90
7163;DHT22;3623;47.098;15.446;2022-10-26T11:18:56;22.40;99.90
7163;DHT22;3623;47.098;15.446;2022-10-26T11:21:27;23.10;99.90
7163;DHT22;3623;47.098;15.446;2022-10-26T11:24:12;23.90;99.90
7163;DHT22;3623;47.098;15.446;2022-10-26T11:26:45;23.60;99.90
7163;DHT22;3623;47.098;15.446;2022-10-26T11:29:23;22.80;99.90
7163;DHT22;3623;47.098;15.446;2022-10-26T11:31:57;23.30;99.90
7163;DHT22;3623;47.098;15.446;2022-10-26T11:34:32;23.40;99.90
7163;DHT22;3623;47.098;15.446;2022-10-26T11:37:05;23.20;99.90
7163;DHT22;3623;47.098;15.446;2022-10-26T11:39:38;23.30;99.90
7163;DHT22;3623;47.098;15.446;2022-10-26T11:42:18;23.20;99.90
7163;DHT22;3623;47.098;15.446;2022-10-26T11:44:50;22.90;99.90
7163;DHT22;3623;47.098;15.446;2022-10-26T11:47:23;22.40;99.90
7163;DHT22;3623;47.098;15.446;2022-10-26T11:49:59;22.00;99.90
7163;DHT22;3623;47.098;15.446;2022-10-26T11:52:33;22.60;99.90
7163;DHT22;3623;47.098;15.446;2022-10-26T11:55:04;23.20;99.90
7163;DHT22;3623;47.098;15.446;2022-10-26T11:57:32;23.20;99.90
7163;DHT22;3623;47.098;15.446;2022-10-26T12:00:03;22.80;99.90
7163;DHT22;3623;47.098;15.446;2022-10-26T12:02:37;22.90;99.90
7163;DHT22;3623;47.098;15.446;2022-10-26T12:05:16;23.50;99.90
7163;DHT22;3623;47.098;15.446;2022-10-26T12:07:47;24.00;99.90
7163;DHT22;3623;47.098;15.446;2022-10-26T12:10:25;24.40;99.90
7163;DHT22;3623;47.098;15.446;2022-10-26T12:13:04;25.00;99.90
7163;DHT22;3623;47.098;15.446;2022-10-26T12:15:39;25.60;99.90
7163;DHT22;3623;47.098;15.446;2022-10-26T12:18:15;24.80;99.90
7163;DHT22;3623;47.098;15.446;2022-10-26T12:20:56;23.70;99.90
7163;DHT22;3623;47.098;15.446;2022-10-26T12:23:29;24.70;99.90
7163;DHT22;3623;47.098;15.446;2022-10-26T12:29:38;25.60;99.90
7163;DHT22;3623;47.098;15.446;2022-10-26T12:35:36;25.00;99.90
7163;DHT22;3623;47.098;15.446;2022-10-26T12:41:20;26.10;99.90
7163;DHT22;3623;47.098;15.446;2022-10-26T12:43:48;24.70;99.90
7163;DHT22;3623;47.098;15.446;2022-10-26T12:46:40;24.50;99.90
7163;DHT22;3623;47.098;15.446;2022-10-26T12:52:44;23.20;99.90
7163;DHT22;3623;47.098;15.446;2022-10-26T12:55:53;22.80;99.90
7163;DHT22;3623;47.098;15.446;2022-10-26T12:58:43;22.20;99.90
7163;DHT22;3623;47.098;15.446;2022-10-26T13:01:35;21.60;99.90
7163;DHT22;3623;47.098;15.446;2022-10-26T13:04:14;21.10;99.90
7163;DHT22;3623;47.098;15.446;2022-10-26T13:06:58;20.60;99.90
7163;DHT22;3623;47.098;15.446;2022-10-26T13:09:35;19.90;99.90
7163;DHT22;3623;47.098;15.446;2022-10-26T13:12:03;19.80;99.90
7163;DHT22;3623;47.098;15.446;2022-10-26T13:14:33;19.70;99.90
7163;DHT22;3623;47.098;15.446;2022-10-26T13:17:03;19.70;99.90
7163;DHT22;3623;47.098;15.446;2022-10-26T13:19:38;19.80;99.90
7163;DHT22;3623;47.098;15.446;2022-10-26T13:22:13;19.60;99.90
7163;DHT22;3623;47.098;15.446;2022-10-26T13:24:47;19.30;99.90
7163;DHT22;3623;47.098;15.446;2022-10-26T13:27:40;19.10;99.90
7163;DHT22;3623;47.098;15.446;2022-10-26T13:33:26;18.90;99.90
7163;DHT22;3623;47.098;15.446;2022-10-26T13:35:56;18.90;99.90
7163;DHT22;3623;47.098;15.446;2022-10-26T13:38:29;18.80;99.90
7163;DHT22;3623;47.098;15.446;2022-10-26T13:41:06;18.70;99.90
7163;DHT22;3623;47.098;15.446;2022-10-26T13:43:35;18.60;99.90
7163;DHT22;3623;47.098;15.446;2022-10-26T13:46:04;18.40;99.90
7163;DHT22;3623;47.098;15.446;2022-10-26T13:48:36;18.40;99.90
7163;DHT22;3623;47.098;15.446;2022-10-26T13:51:12;18.20;99.90
7163;DHT22;3623;47.098;15.446;2022-10-26T13:53:45;18.00;99.90
7163;DHT22;3623;47.098;15.446;2022-10-26T13:56:23;18.00;99.90
7163;DHT22;3623;47.098;15.446;2022-10-26T13:58:56;18.00;99.90
7163;DHT22;3623;47.098;15.446;2022-10-26T14:01:25;17.90;99.90
7163;DHT22;3623;47.098;15.446;2022-10-26T14:03:53;17.90;99.90
7163;DHT22;3623;47.098;15.446;2022-10-26T14:06:25;17.90;99.90
7163;DHT22;3623;47.098;15.446;2022-10-26T14:08:55;17.90;99.90
7163;DHT22;3623;47.098;15.446;2022-10-26T14:11:32;17.90;99.90
7163;DHT22;3623;47.098;15.446;2022-10-26T14:14:00;17.90;99.90
7163;DHT22;3623;47.098;15.446;2022-10-26T14:16:30;17.70;99.90
7163;DHT22;3623;47.098;15.446;2022-10-26T14:18:58;17.60;99.90
7163;DHT22;3623;47.098;15.446;2022-10-26T14:21:25;17.50;99.90
7163;DHT22;3623;47.098;15.446;2022-10-26T14:23:55;17.50;99.90
7163;DHT22;3623;47.098;15.446;2022-10-26T14:26:25;17.30;99.90
7163;DHT22;3623;47.098;15.446;2022-10-26T14:28:56;17.30;99.90
7163;DHT22;3623;47.098;15.446;2022-10-26T14:31:26;17.20;99.90
7163;DHT22;3623;47.098;15.446;2022-10-26T14:33:54;17.10;99.90
7163;DHT22;3623;47.098;15.446;2022-10-26T14:36:24;17.00;99.90
7163;DHT22;3623;47.098;15.446;2022-10-26T14:38:57;17.00;99.90
7163;DHT22;3623;47.098;15.446;2022-10-26T14:41:25;16.80;99.90
7163;DHT22;3623;47.098;15.446;2022-10-26T14:43:57;16.80;99.90
7163;DHT22;3623;47.098;15.446;2022-10-26T14:46:27;16.70;99.90
7163;DHT22;3623;47.098;15.446;2022-10-26T14:48:59;16.60;99.90
7163;DHT22;3623;47.098;15.446;2022-10-26T14:51:27;16.60;99.90
7163;DHT22;3623;47.098;15.446;2022-10-26T14:53:56;16.50;99.90
7163;DHT22;3623;47.098;15.446;2022-10-26T14:56:29;16.60;99.90
7163;DHT22;3623;47.098;15.446;2022-10-26T14:58:58;16.50;99.90
7163;DHT22;3623;47.098;15.446;2022-10-26T15:01:30;16.30;99.90
7163;DHT22;3623;47.098;15.446;2022-10-26T15:04:00;16.30;99.90
7163;DHT22;3623;47.098;15.446;2022-10-26T15:06:42;16.10;99.90
7163;DHT22;3623;47.098;15.446;2022-10-26T15:09:28;16.10;99.90
7163;DHT22;3623;47.098;15.446;2022-10-26T15:11:56;15.90;99.90
7163;DHT22;3623;47.098;15.446;2022-10-26T15:14:25;15.90;99.90
7163;DHT22;3623;47.098;15.446;2022-10-26T15:16:53;15.80;99.90
7163;DHT22;3623;47.098;15.446;2022-10-26T15:19:21;15.80;99.90
7163;DHT22;3623;47.098;15.446;2022-10-26T15:21:49;15.80;99.90
7163;DHT22;3623;47.098;15.446;2022-10-26T15:24:30;15.70;99.90
7163;DHT22;3623;47.098;15.446;2022-10-26T15:26:58;15.60;99.90
7163;DHT22;3623;47.098;15.446;2022-10-26T15:29:42;15.50;99.90
7163;DHT22;3623;47.098;15.446;2022-10-26T15:32:24;15.50;99.90
7163;DHT22;3623;47.098;15.446;2022-10-26T15:35:26;15.40;99.90
7163;DHT22;3623;47.098;15.446;2022-10-26T15:37:54;15.50;99.90
7163;DHT22;3623;47.098;15.446;2022-10-26T15:40:22;15.50;99.90
7163;DHT22;3623;47.098;15.446;2022-10-26T15:42:51;15.40;99.90
7163;DHT22;3623;47.098;15.446;2022-10-26T15:45:22;15.50;99.90
7163;DHT22;3623;47.098;15.446;2022-10-26T15:47:50;15.50;99.90
7163;DHT22;3623;47.098;15.446;2022-10-26T15:50:19;15.40;99.90
7163;DHT22;3623;47.098;15.446;2022-10-26T15:52:47;15.40;99.90
7163;DHT22;3623;47.098;15.446;2022-10-26T15:55:15;15.40;99.90
7163;DHT22;3623;47.098;15.446;2022-10-26T15:57:42;15.40;99.90
7163;DHT22;3623;47.098;15.446;2022-10-26T16:00:15;15.30;99.90
7163;DHT22;3623;47.098;15.446;2022-10-26T16:02:44;15.30;99.90
7163;DHT22;3623;47.098;15.446;2022-10-26T16:05:12;15.20;99.90
7163;DHT22;3623;47.098;15.446;2022-10-26T16:07:41;15.10;99.90
7163;DHT22;3623;47.098;15.446;2022-10-26T16:10:12;15.10;99.90
7163;DHT22;3623;47.098;15.446;2022-10-26T16:12:40;15.10;99.90
7163;DHT22;3623;47.098;15.446;2022-10-26T16:15:17;15.00;99.90
7163;DHT22;3623;47.098;15.446;2022-10-26T16:17:46;15.00;99.90
7163;DHT22;3623;47.098;15.446;2022-10-26T16:20:15;14.90;99.90
7163;DHT22;3623;47.098;15.446;2022-10-26T16:22:43;14.90;99.90
7163;DHT22;3623;47.098;15.446;2022-10-26T16:25:14;14.80;99.90
7163;DHT22;3623;47.098;15.446;2022-10-26T16:27:42;14.80;99.90
7163;DHT22;3623;47.098;15.446;2022-10-26T16:30:11;14.70;99.90
7163;DHT22;3623;47.098;15.446;2022-10-26T16:32:39;14.60;99.90
7163;DHT22;3623;47.098;15.446;2022-10-26T16:35:09;14.60;99.90
7163;DHT22;3623;47.098;15.446;2022-10-26T16:37:36;14.60;99.90